Terminal Aerodrome Forecast
Issued by NWS Billings, MT

Home | Current Version | Previous Version | Text Only | Print | Product List | Glossary On
Versions: 1 2 3 4 5 6 7 8 9 10 11 12 13 14
000
FTUS45 KBYZ 270530
TAFSHR
TAF
KSHR 270530Z 2706/2806 29007KT P6SM VCTS SCT080CB BKN120
      TEMPO 2706/2707 VRB15G25KT
     FM270800 VRB05KT P6SM VCSH FEW080 BKN120
     FM271200 VRB04KT P6SM FEW100
     FM271900 34009KT P6SM VCTS SCT090CB BKN120
     FM280300 VRB06KT P6SM VCSH BKN080=

USA.gov is the U.S. government's official web portal to all federal, state and local government web resources and services.